LEAS 260200Z AUTO VRB02KT 7000 -RA BKN031/// OVC037/// 06/05 Q1016